PWSweather.com
Personal Weather Stations
Station Observations
KWIPARKF
Flambeau River State Forest, Park Falls, WI 54552

Flambeau River State ForestPark Falls, WI 54552

Lat: 45.81943, Lon: -90.61676

Elevation: 1476

Station Type: Davis Vantage Pro2 Plus

Latest ConditionsUpdated 12:00:02 PM CST Tuesday, Nov 12, 2019
Currently Today's Max Today's Min Today's Average
Temperature 12.1°F-11.1°C 12.1°F-11.1°C 0.3°F-17.6°C 3.7°F-15.7°C
Dew Point 2.2°F-16.6°C 4.3°F-15.4°C -2.9°F-19.4°C 0.1°F-17.7°C
Winds Calm Calm Calm -Calm - - Calm Calm
Wind Gusts -- -- - -
Humidity 64% 89% 64% 85%
Pressure 30.54 in1034.2 mb 30.61 in1036.6 mb 30.54 in1034.2 mb -
Hour Temp Dew Point Humidity Winds Wind Gusts Pressure Precip Precip Rate Daily Precip Total
12:00 PM 12.1°F-11.1°C 2.2°F-16.6°C 64% Calm Calm -- 30.54 in1034.2 mb - 0.00 in0.0 mm 0.00 in0.0 mm
11:50 AM 11.7°F-11.3°C 2.5°F-16.4°C 66% Calm Calm -- 30.54 in1034.2 mb - 0.00 in0.0 mm 0.00 in0.0 mm
11:40 AM 11.3°F-11.5°C 2.5°F-16.4°C 67% Calm Calm -- 30.54 in1034.2 mb - 0.00 in0.0 mm 0.00 in0.0 mm
11:30 AM 10.8°F-11.8°C 3.5°F-15.8°C 72% Calm Calm -- 30.54 in1034.2 mb - 0.00 in0.0 mm 0.00 in0.0 mm
11:20 AM 10.5°F-11.9°C 3.3°F-15.9°C 72% Calm Calm -- 30.55 in1034.5 mb - 0.00 in0.0 mm 0.00 in0.0 mm
11:10 AM 9.9°F-12.3°C 3.0°F-16.1°C 73% Calm Calm -- 30.56 in1034.9 mb - 0.00 in0.0 mm 0.00 in0.0 mm
11:00 AM 9.8°F-12.3°C 3.2°F-16.0°C 74% Calm Calm -- 30.57 in1035.2 mb - 0.00 in0.0 mm 0.00 in0.0 mm
10:50 AM 9.4°F-12.6°C 3.1°F-16.1°C 75% Calm Calm -- 30.57 in1035.2 mb - 0.00 in0.0 mm 0.00 in0.0 mm
10:40 AM 9.3°F-12.6°C 3.2°F-16.0°C 76% Calm Calm -- 30.58 in1035.6 mb - 0.00 in0.0 mm 0.00 in0.0 mm
10:30 AM 9.2°F-12.7°C 4.3°F-15.4°C 80% Calm Calm -- 30.59 in1035.9 mb - 0.00 in0.0 mm 0.00 in0.0 mm
10:20 AM 8.3°F-13.2°C 3.7°F-15.7°C 81% Calm Calm -- 30.59 in1035.9 mb - 0.00 in0.0 mm 0.00 in0.0 mm
10:10 AM 8.0°F-13.3°C 4.2°F-15.4°C 84% Calm Calm -- 30.60 in1036.2 mb - 0.00 in0.0 mm 0.00 in0.0 mm
10:00 AM 7.2°F-13.8°C 3.6°F-15.8°C 85% Calm Calm -- 30.60 in1036.2 mb - 0.00 in0.0 mm 0.00 in0.0 mm
09:50 AM 6.2°F-14.3°C 3.2°F-16.0°C 87% Calm Calm -- 30.60 in1036.2 mb - 0.00 in0.0 mm 0.00 in0.0 mm
09:40 AM 5.7°F-14.6°C 2.7°F-16.3°C 87% Calm Calm -- 30.60 in1036.2 mb - 0.00 in0.0 mm 0.00 in0.0 mm
09:30 AM 5.3°F-14.8°C 2.5°F-16.4°C 88% Calm Calm -- 30.59 in1035.9 mb - 0.00 in0.0 mm 0.00 in0.0 mm
09:20 AM 4.7°F-15.2°C 1.9°F-16.7°C 88% Calm Calm -- 30.60 in1036.2 mb - 0.00 in0.0 mm 0.00 in0.0 mm
09:10 AM 4.1°F-15.5°C 1.6°F-16.9°C 89% Calm Calm -- 30.60 in1036.2 mb - 0.00 in0.0 mm 0.00 in0.0 mm
09:00 AM 3.6°F-15.8°C 0.8°F-17.3°C 88% Calm Calm -- 30.60 in1036.2 mb - 0.00 in0.0 mm 0.00 in0.0 mm
08:50 AM 3.2°F-16.0°C 0.4°F-17.6°C 88% Calm Calm -- 30.60 in1036.2 mb - 0.00 in0.0 mm 0.00 in0.0 mm
08:40 AM 2.8°F-16.2°C 0.3°F-17.6°C 89% Calm Calm -- 30.60 in1036.2 mb - 0.00 in0.0 mm 0.00 in0.0 mm
08:30 AM 2.3°F-16.5°C -0.5°F-18.1°C 88% Calm Calm -- 30.60 in1036.2 mb - 0.00 in0.0 mm 0.00 in0.0 mm
08:20 AM 1.6°F-16.9°C -1.1°F-18.4°C 88% Calm Calm -- 30.61 in1036.6 mb - 0.00 in0.0 mm 0.00 in0.0 mm
08:10 AM 1.1°F-17.2°C -1.6°F-18.7°C 88% Calm Calm -- 30.60 in1036.2 mb - 0.00 in0.0 mm 0.00 in0.0 mm
08:00 AM 0.5°F-17.5°C -2.5°F-19.2°C 87% Calm Calm -- 30.59 in1035.9 mb - 0.00 in0.0 mm 0.00 in0.0 mm
07:50 AM 0.4°F-17.6°C -2.5°F-19.2°C 87% Calm Calm -- 30.59 in1035.9 mb - 0.00 in0.0 mm 0.00 in0.0 mm
07:40 AM 0.4°F-17.6°C -2.6°F-19.2°C 87% Calm Calm -- 30.59 in1035.9 mb - 0.00 in0.0 mm 0.00 in0.0 mm
07:30 AM 0.4°F-17.6°C -2.5°F-19.2°C 87% Calm Calm -- 30.59 in1035.9 mb - 0.00 in0.0 mm 0.00 in0.0 mm
07:20 AM 0.3°F-17.6°C -2.9°F-19.4°C 86% Calm Calm -- 30.59 in1035.9 mb - 0.00 in0.0 mm 0.00 in0.0 mm
07:10 AM 0.4°F-17.6°C -2.8°F-19.3°C 86% Calm Calm -- 30.59 in1035.9 mb - 0.00 in0.0 mm 0.00 in0.0 mm
07:00 AM 0.6°F-17.4°C -2.6°F-19.2°C 86% Calm Calm -- 30.59 in1035.9 mb - 0.00 in0.0 mm 0.00 in0.0 mm
06:50 AM 0.9°F-17.3°C -2.3°F-19.1°C 86% Calm Calm -- 30.59 in1035.9 mb - 0.00 in0.0 mm 0.00 in0.0 mm
06:40 AM 1.0°F-17.2°C -2.0°F-18.9°C 87% Calm Calm -- 30.58 in1035.6 mb - 0.00 in0.0 mm 0.00 in0.0 mm
06:30 AM 1.1°F-17.2°C -1.9°F-18.8°C 87% Calm Calm -- 30.58 in1035.6 mb - 0.00 in0.0 mm 0.00 in0.0 mm
06:20 AM 1.3°F-17.1°C -1.7°F-18.7°C 87% Calm Calm -- 30.59 in1035.9 mb - 0.00 in0.0 mm 0.00 in0.0 mm
06:10 AM 1.4°F-17.0°C -1.6°F-18.7°C 87% Calm Calm -- 30.59 in1035.9 mb - 0.00 in0.0 mm 0.00 in0.0 mm
06:00 AM 1.5°F-16.9°C -1.5°F-18.6°C 87% Calm Calm -- 30.59 in1035.9 mb - 0.00 in0.0 mm 0.00 in0.0 mm
05:50 AM 1.6°F-16.9°C -1.3°F-18.5°C 87% Calm Calm -- 30.60 in1036.2 mb - 0.00 in0.0 mm 0.00 in0.0 mm
05:40 AM 1.7°F-16.8°C -1.2°F-18.4°C 87% Calm Calm -- 30.60 in1036.2 mb - 0.00 in0.0 mm 0.00 in0.0 mm
05:30 AM 1.9°F-16.7°C -1.1°F-18.4°C 87% Calm Calm -- 30.60 in1036.2 mb - 0.00 in0.0 mm 0.00 in0.0 mm
05:20 AM 1.9°F-16.7°C -1.1°F-18.4°C 87% Calm Calm -- 30.60 in1036.2 mb - 0.00 in0.0 mm 0.00 in0.0 mm
05:10 AM 1.9°F-16.7°C -1.1°F-18.4°C 87% Calm Calm -- 30.60 in1036.2 mb - 0.00 in0.0 mm 0.00 in0.0 mm
05:00 AM 1.7°F-16.8°C -1.2°F-18.4°C 87% Calm Calm -- 30.60 in1036.2 mb - 0.00 in0.0 mm 0.00 in0.0 mm
04:50 AM 1.7°F-16.8°C -1.3°F-18.5°C 87% Calm Calm -- 30.60 in1036.2 mb - 0.00 in0.0 mm 0.00 in0.0 mm
04:40 AM 1.6°F-16.9°C -1.4°F-18.6°C 87% Calm Calm -- 30.60 in1036.2 mb - 0.00 in0.0 mm 0.00 in0.0 mm
04:30 AM 1.6°F-16.9°C -1.4°F-18.6°C 87% Calm Calm -- 30.59 in1035.9 mb - 0.00 in0.0 mm 0.00 in0.0 mm
04:20 AM 1.7°F-16.8°C -1.3°F-18.5°C 87% Calm Calm -- 30.59 in1035.9 mb - 0.00 in0.0 mm 0.00 in0.0 mm
04:10 AM 1.8°F-16.8°C -1.1°F-18.4°C 87% Calm Calm -- 30.59 in1035.9 mb - 0.00 in0.0 mm 0.00 in0.0 mm
04:00 AM 2.0°F-16.7°C -1.0°F-18.3°C 87% Calm Calm -- 30.59 in1035.9 mb - 0.00 in0.0 mm 0.00 in0.0 mm
03:50 AM 2.1°F-16.6°C -0.9°F-18.3°C 87% Calm Calm -- 30.59 in1035.9 mb - 0.00 in0.0 mm 0.00 in0.0 mm
03:40 AM 2.2°F-16.6°C -0.8°F-18.2°C 87% Calm Calm -- 30.59 in1035.9 mb - 0.00 in0.0 mm 0.00 in0.0 mm
03:30 AM 2.3°F-16.5°C -0.7°F-18.2°C 87% Calm Calm -- 30.59 in1035.9 mb - 0.00 in0.0 mm 0.00 in0.0 mm
03:20 AM 2.4°F-16.4°C -0.6°F-18.1°C 87% Calm Calm -- 30.59 in1035.9 mb - 0.00 in0.0 mm 0.00 in0.0 mm
03:10 AM 2.5°F-16.4°C -0.5°F-18.1°C 87% Calm Calm -- 30.59 in1035.9 mb - 0.00 in0.0 mm 0.00 in0.0 mm
03:00 AM 2.6°F-16.3°C -0.4°F-18.0°C 87% Calm Calm -- 30.59 in1035.9 mb - 0.00 in0.0 mm 0.00 in0.0 mm
02:50 AM 2.6°F-16.3°C -0.4°F-18.0°C 87% Calm Calm -- 30.59 in1035.9 mb - 0.00 in0.0 mm 0.00 in0.0 mm
02:40 AM 2.7°F-16.3°C -0.3°F-17.9°C 87% Calm Calm -- 30.59 in1035.9 mb - 0.00 in0.0 mm 0.00 in0.0 mm
02:30 AM 2.7°F-16.3°C -0.5°F-18.1°C 86% Calm Calm -- 30.59 in1035.9 mb - 0.00 in0.0 mm 0.00 in0.0 mm
02:20 AM 2.8°F-16.2°C -0.2°F-17.9°C 87% Calm Calm -- 30.59 in1035.9 mb - 0.00 in0.0 mm 0.00 in0.0 mm
02:10 AM 2.9°F-16.2°C -0.3°F-17.9°C 86% Calm Calm -- 30.60 in1036.2 mb - 0.00 in0.0 mm 0.00 in0.0 mm
02:00 AM 3.0°F-16.1°C -0.2°F-17.9°C 86% Calm Calm -- 30.60 in1036.2 mb - 0.00 in0.0 mm 0.00 in0.0 mm
01:50 AM 3.1°F-16.1°C -0.2°F-17.9°C 86% Calm Calm -- 30.60 in1036.2 mb - 0.00 in0.0 mm 0.00 in0.0 mm
01:40 AM 3.1°F-16.1°C -0.1°F-17.8°C 86% Calm Calm -- 30.60 in1036.2 mb - 0.00 in0.0 mm 0.00 in0.0 mm
01:30 AM 3.2°F-16.0°C 0.0°F-17.8°C 86% Calm Calm -- 30.60 in1036.2 mb - 0.00 in0.0 mm 0.00 in0.0 mm
01:20 AM 3.2°F-16.0°C 0.0°F-17.8°C 86% Calm Calm -- 30.60 in1036.2 mb - 0.00 in0.0 mm 0.00 in0.0 mm
01:10 AM 3.2°F-16.0°C 0.0°F-17.8°C 86% Calm Calm -- 30.60 in1036.2 mb - 0.00 in0.0 mm 0.00 in0.0 mm
01:00 AM 3.4°F-15.9°C 0.1°F-17.7°C 86% Calm Calm -- 30.60 in1036.2 mb - 0.00 in0.0 mm 0.00 in0.0 mm
12:50 AM 3.5°F-15.8°C 0.3°F-17.6°C 86% Calm Calm -- 30.60 in1036.2 mb - 0.00 in0.0 mm 0.00 in0.0 mm
12:40 AM 3.6°F-15.8°C 0.4°F-17.6°C 86% Calm Calm -- 30.60 in1036.2 mb - 0.00 in0.0 mm 0.00 in0.0 mm
12:30 AM 3.7°F-15.7°C 0.4°F-17.6°C 86% Calm Calm -- 30.61 in1036.6 mb - 0.00 in0.0 mm 0.00 in0.0 mm
12:20 AM 3.8°F-15.7°C 0.6°F-17.4°C 86% Calm Calm -- 30.61 in1036.6 mb - 0.00 in0.0 mm 0.00 in0.0 mm
12:10 AM 4.0°F-15.6°C 0.7°F-17.4°C 86% Calm Calm -- 30.61 in1036.6 mb - 0.00 in0.0 mm 0.00 in0.0 mm
12:00 AM 4.0°F-15.6°C 0.7°F-17.4°C 86% Calm Calm -- 30.60 in1036.2 mb - 0.00 in0.0 mm 0.00 in0.0 mm